createdAt,value
2022-09-01T00:00:09.641Z,7.35
2022-09-01T00:02:59.122Z,4.80
2022-09-01T00:05:28.269Z,4.47
2022-09-01T00:07:57.392Z,5.43
2022-09-01T00:10:26.687Z,3.50
2022-09-01T00:12:57.079Z,5.35
2022-09-01T00:15:30.584Z,4.00
2022-09-01T00:17:59.603Z,4.20
2022-09-01T00:20:29.026Z,6.70
2022-09-01T00:22:58.215Z,4.57
2022-09-01T00:25:27.970Z,3.47
2022-09-01T00:28:00.296Z,3.88
2022-09-01T00:30:30.721Z,6.18
2022-09-01T00:32:59.990Z,6.50
2022-09-01T00:35:29.523Z,2.65
2022-09-01T00:37:58.473Z,3.20
2022-09-01T00:40:31.397Z,3.05
2022-09-01T00:43:01.216Z,4.20
2022-09-01T00:45:32.369Z,4.03
2022-09-01T00:48:01.488Z,6.22
2022-09-01T00:50:30.770Z,3.20
2022-09-01T00:53:00.879Z,3.60
2022-09-01T00:55:32.825Z,3.17
2022-09-01T00:58:03.665Z,4.75
2022-09-01T01:00:41.935Z,1.67
2022-09-01T01:03:12.850Z,3.05
2022-09-01T01:05:54.383Z,2.55
2022-09-01T01:08:31.674Z,3.53
2022-09-01T01:11:01.248Z,5.35
2022-09-01T01:13:32.132Z,4.32
2022-09-01T01:16:03.358Z,3.17
2022-09-01T01:18:33.028Z,2.83
2022-09-01T01:21:24.687Z,1.55
2022-09-01T01:24:03.544Z,3.70
2022-09-01T01:26:34.610Z,1.60
2022-09-01T01:29:04.940Z,2.67
2022-09-01T01:31:35.481Z,4.00
2022-09-01T01:34:09.822Z,2.08
2022-09-01T01:36:41.725Z,4.28
2022-09-01T01:39:19.318Z,2.95
2022-09-01T01:41:50.811Z,3.67
2022-09-01T01:44:27.954Z,2.53
2022-09-01T01:46:59.950Z,3.30
2022-09-01T01:49:31.317Z,2.65
2022-09-01T01:52:01.241Z,0.93
2022-09-01T01:54:33.834Z,2.30
2022-09-01T01:59:34.708Z,5.95
2022-09-01T02:02:09.860Z,2.58
2022-09-01T02:04:40.430Z,4.05
2022-09-01T02:07:14.091Z,4.38
2022-09-01T02:09:48.182Z,4.47
2022-09-01T02:12:19.740Z,2.95
2022-09-01T02:14:50.211Z,2.85
2022-09-01T02:17:21.294Z,1.58
2022-09-01T02:19:50.720Z,2.53
2022-09-01T02:22:21.743Z,2.38
2022-09-01T02:24:52.804Z,1.88
2022-09-01T02:27:26.014Z,2.00
2022-09-01T02:29:58.800Z,1.50
2022-09-01T02:32:28.646Z,2.13
2022-09-01T02:35:01.416Z,2.10
2022-09-01T02:37:30.817Z,1.70
2022-09-01T02:39:59.915Z,1.55
2022-09-01T02:42:30.337Z,3.50
2022-09-01T02:44:59.840Z,1.50
2022-09-01T02:47:33.566Z,2.53
2022-09-01T02:52:38.265Z,2.00
2022-09-01T02:55:09.118Z,2.20
2022-09-01T02:57:39.867Z,2.15
2022-09-01T03:00:20.924Z,2.60
2022-09-01T03:02:52.966Z,4.93
2022-09-01T03:05:25.446Z,3.90
2022-09-01T03:07:58.034Z,1.17
2022-09-01T03:11:23.848Z,2.45
2022-09-01T03:13:54.885Z,3.60
2022-09-01T03:16:24.704Z,2.70
2022-09-01T03:18:54.161Z,1.73
2022-09-01T03:21:23.541Z,2.08
2022-09-01T03:23:54.317Z,2.92
2022-09-01T03:26:24.336Z,1.80
2022-09-01T03:28:55.059Z,2.95
2022-09-01T03:31:27.582Z,3.75
2022-09-01T03:34:03.425Z,3.60
2022-09-01T03:36:36.154Z,2.67
2022-09-01T03:39:05.768Z,1.10
2022-09-01T03:41:37.512Z,2.90
2022-09-01T03:44:12.135Z,3.15
2022-09-01T03:46:42.616Z,3.60
2022-09-01T03:49:15.203Z,3.20
2022-09-01T03:51:45.116Z,1.45
2022-09-01T03:54:14.835Z,3.58
2022-09-01T03:56:43.936Z,5.70
2022-09-01T03:59:19.792Z,2.90
2022-09-01T04:01:50.367Z,3.42
2022-09-01T04:04:19.593Z,4.22
2022-09-01T04:06:49.206Z,5.20
2022-09-01T04:09:18.299Z,3.85
2022-09-01T04:11:48.522Z,1.73
2022-09-01T04:14:19.826Z,2.00
2022-09-01T04:17:08.428Z,1.95
2022-09-01T04:19:39.663Z,2.88
2022-09-01T04:22:17.767Z,1.63
2022-09-01T04:24:47.227Z,2.65
2022-09-01T04:27:21.681Z,3.33
2022-09-01T04:29:55.811Z,1.75
2022-09-01T04:32:28.900Z,1.75
2022-09-01T04:35:01.653Z,2.00
2022-09-01T04:37:31.272Z,2.20
2022-09-01T04:40:04.591Z,2.40
2022-09-01T04:42:34.979Z,3.75
2022-09-01T04:45:11.268Z,1.50
2022-09-01T04:47:45.572Z,3.50
2022-09-01T04:50:19.709Z,2.60
2022-09-01T04:53:12.042Z,2.47
2022-09-01T04:55:46.196Z,2.33
2022-09-01T04:58:20.668Z,2.20
2022-09-01T05:00:53.143Z,4.07
2022-09-01T05:03:24.657Z,2.70
2022-09-01T05:06:03.994Z,4.25
2022-09-01T05:08:35.521Z,1.88
2022-09-01T05:11:17.898Z,1.30
2022-09-01T05:13:51.205Z,4.10
2022-09-01T05:16:25.354Z,1.77
2022-09-01T05:18:58.339Z,4.40
2022-09-01T05:21:34.438Z,2.13
2022-09-01T05:24:05.115Z,5.28
2022-09-01T05:26:35.215Z,3.33
2022-09-01T05:29:10.751Z,3.70
2022-09-01T05:31:43.403Z,1.52
2022-09-01T05:34:13.192Z,5.53
2022-09-01T05:36:48.312Z,1.52
2022-09-01T05:39:17.748Z,1.45
2022-09-01T05:41:48.208Z,2.10
2022-09-01T05:44:22.604Z,1.45
2022-09-01T05:46:55.888Z,1.38
2022-09-01T05:49:28.659Z,5.60
2022-09-01T05:51:59.025Z,2.38
2022-09-01T05:54:30.764Z,1.27
2022-09-01T05:57:17.417Z,3.33
2022-09-01T05:59:54.058Z,1.05
2022-09-01T06:02:28.750Z,2.25
2022-09-01T06:05:00.397Z,2.67
2022-09-01T06:07:35.855Z,3.15
2022-09-01T06:10:06.388Z,2.35
2022-09-01T06:12:36.620Z,3.55
2022-09-01T06:15:16.054Z,2.85
2022-09-01T06:17:50.061Z,4.90
2022-09-01T06:20:20.396Z,4.07
2022-09-01T06:22:49.859Z,6.55
2022-09-01T06:25:19.468Z,3.85
2022-09-01T06:27:52.495Z,3.30
2022-09-01T06:30:24.390Z,1.05
2022-09-01T06:33:02.369Z,2.17
2022-09-01T06:35:34.001Z,1.73
2022-09-01T06:38:04.887Z,2.30
2022-09-01T06:40:43.691Z,2.30
2022-09-01T06:43:17.474Z,7.18
2022-09-01T06:45:54.760Z,3.80
2022-09-01T06:48:30.930Z,2.47
2022-09-01T06:51:15.967Z,3.53
2022-09-01T06:53:51.221Z,2.40
2022-09-01T06:56:20.968Z,3.38
2022-09-01T06:58:53.426Z,2.03
2022-09-01T07:01:24.406Z,2.15
2022-09-01T07:03:57.141Z,3.63
2022-09-01T07:07:54.416Z,4.05
2022-09-01T07:10:21.028Z,2.17
2022-09-01T07:13:09.001Z,2.75
2022-09-01T07:18:35.023Z,1.35
2022-09-01T07:21:36.142Z,2.72
2022-09-01T07:24:11.165Z,3.95
2022-09-01T07:26:47.636Z,4.40
2022-09-01T07:29:22.786Z,23.98
2022-09-01T07:34:47.718Z,3.05
2022-09-01T07:43:34.121Z,3.30
2022-09-01T07:52:03.895Z,8.32
2022-09-01T07:54:37.322Z,3.28
2022-09-01T07:57:06.622Z,2.80
2022-09-01T07:59:37.703Z,1.95
2022-09-01T08:02:17.705Z,1.85
2022-09-01T08:04:48.273Z,1.35
2022-09-01T08:07:18.030Z,5.10
2022-09-01T08:09:48.442Z,1.42
2022-09-01T08:12:18.803Z,35.58
2022-09-01T08:15:12.730Z,17.58
2022-09-01T08:17:51.690Z,16.30
2022-09-01T08:20:21.366Z,11.50
2022-09-01T08:23:15.158Z,4.30
2022-09-01T08:25:45.949Z,2.42
2022-09-01T08:28:26.284Z,5.20
2022-09-01T08:30:56.402Z,2.55
2022-09-01T08:33:27.830Z,1.52
2022-09-01T08:35:57.326Z,1.58
2022-09-01T08:38:28.139Z,2.15
2022-09-01T08:41:03.387Z,4.00
2022-09-01T08:43:49.114Z,1.90
2022-09-01T08:46:26.065Z,1.52
2022-09-01T08:52:15.351Z,2.60
2022-09-01T08:54:47.945Z,2.22
2022-09-01T08:57:23.081Z,6.97
2022-09-01T09:00:23.384Z,1.13
2022-09-01T09:03:07.750Z,2.50
2022-09-01T09:05:52.248Z,0.70
2022-09-01T09:08:35.163Z,1.58
2022-09-01T09:11:08.378Z,1.67
2022-09-01T09:13:53.617Z,6.07
2022-09-01T09:16:28.989Z,2.47
2022-09-01T09:19:04.315Z,0.98
2022-09-01T09:21:37.375Z,1.35
2022-09-01T09:24:20.672Z,3.95
2022-09-01T09:26:51.442Z,2.13
2022-09-01T09:29:22.060Z,1.70
2022-09-01T09:32:04.859Z,0.70
2022-09-01T09:34:36.908Z,0.82
2022-09-01T09:37:24.023Z,0.70
2022-09-01T09:40:15.936Z,3.17
2022-09-01T09:43:07.716Z,2.70
2022-09-01T09:45:42.330Z,1.60
2022-09-01T09:48:29.039Z,1.40
2022-09-01T09:51:16.644Z,3.53
2022-09-01T09:53:45.849Z,2.50
2022-09-01T09:56:20.844Z,1.33
2022-09-01T09:58:51.721Z,4.45
2022-09-01T10:01:32.558Z,4.57
2022-09-01T10:04:04.337Z,3.08
2022-09-01T10:06:37.358Z,3.10
2022-09-01T10:09:09.669Z,2.67
2022-09-01T10:11:42.298Z,3.30
2022-09-01T10:14:35.871Z,2.30
2022-09-01T10:17:13.369Z,3.28
2022-09-01T10:19:52.614Z,1.30
2022-09-01T10:22:23.153Z,1.73
2022-09-01T10:24:52.167Z,3.15
2022-09-01T10:30:13.998Z,0.80
2022-09-01T10:32:54.885Z,3.45
2022-09-01T10:35:28.227Z,1.75
2022-09-01T10:38:01.007Z,4.05
2022-09-01T10:40:41.709Z,1.77
2022-09-01T10:43:38.043Z,4.38
2022-09-01T10:46:42.160Z,7.40
2022-09-01T10:49:50.520Z,2.88
2022-09-01T10:53:11.462Z,1.95
2022-09-01T10:56:02.005Z,4.53
2022-09-01T11:02:34.742Z,4.70
2022-09-01T11:05:19.230Z,3.53
2022-09-01T11:08:15.242Z,4.38
2022-09-01T11:10:53.485Z,5.20
2022-09-01T11:13:46.317Z,4.10
2022-09-01T11:16:52.388Z,1.38
2022-09-01T11:19:39.347Z,1.27
2022-09-01T11:22:22.896Z,2.20
2022-09-01T11:25:38.722Z,2.28
2022-09-01T11:28:47.358Z,1.45
2022-09-01T11:31:33.242Z,2.60
2022-09-01T11:34:13.325Z,1.60
2022-09-01T11:37:00.374Z,2.97
2022-09-01T11:39:44.165Z,1.23
2022-09-01T11:42:19.632Z,0.75
2022-09-01T11:44:54.083Z,0.80
2022-09-01T11:47:27.716Z,1.15
2022-09-01T11:49:59.868Z,1.75
2022-09-01T11:52:31.882Z,2.92
2022-09-01T11:55:01.618Z,3.75
2022-09-01T11:57:33.795Z,3.00
2022-09-01T12:00:05.909Z,2.65
2022-09-01T12:02:47.920Z,1.48
2022-09-01T12:05:33.325Z,0.52
2022-09-01T12:08:05.672Z,1.88
2022-09-01T12:10:38.722Z,1.05
2022-09-01T12:13:10.871Z,1.30
2022-09-01T12:16:00.617Z,0.90
2022-09-01T12:18:38.365Z,0.70
2022-09-01T12:21:09.603Z,1.63
2022-09-01T12:23:43.190Z,1.92
2022-09-01T12:26:15.799Z,3.15
2022-09-01T12:28:45.688Z,3.35
2022-09-01T12:31:17.279Z,1.95
2022-09-01T12:33:49.100Z,1.23
2022-09-01T12:36:25.552Z,2.35
2022-09-01T12:38:56.477Z,2.05
2022-09-01T12:41:35.139Z,1.17
2022-09-01T12:44:31.046Z,1.95
2022-09-01T12:47:02.572Z,4.32
2022-09-01T12:49:47.909Z,1.65
2022-09-01T12:52:26.073Z,2.43
2022-09-01T12:55:47.380Z,1.48
2022-09-01T12:58:06.190Z,2.17
2022-09-01T13:00:37.083Z,1.95
2022-09-01T13:03:14.533Z,0.80
2022-09-01T13:05:47.163Z,1.95
2022-09-01T13:08:19.029Z,1.05
2022-09-01T13:10:51.733Z,0.85
2022-09-01T13:13:24.120Z,2.53
2022-09-01T13:15:55.478Z,3.67
2022-09-01T13:18:26.516Z,1.05
2022-09-01T13:20:59.051Z,1.42
2022-09-01T13:23:28.466Z,1.98
2022-09-01T13:25:59.038Z,1.38
2022-09-01T13:28:28.490Z,1.60
2022-09-01T13:36:45.216Z,3.08
2022-09-01T13:39:16.960Z,1.05
2022-09-01T13:41:48.223Z,1.30
2022-09-01T13:44:18.554Z,3.08
2022-09-01T13:50:05.458Z,2.35
2022-09-01T13:52:27.708Z,2.72
2022-09-01T13:54:56.857Z,0.57
2022-09-01T13:57:27.020Z,3.17
2022-09-01T14:00:01.015Z,1.55
2022-09-01T14:02:29.960Z,2.85
2022-09-01T14:04:59.396Z,0.52
2022-09-01T14:07:30.493Z,1.55
2022-09-01T14:09:59.555Z,1.25
2022-09-01T14:12:30.269Z,1.92
2022-09-01T14:15:17.536Z,0.90
2022-09-01T14:17:48.559Z,1.73
2022-09-01T14:20:20.263Z,1.60
2022-09-01T14:22:52.126Z,3.97
2022-09-01T14:25:22.209Z,0.65
2022-09-01T14:27:53.325Z,1.55
2022-09-01T14:30:29.155Z,1.55
2022-09-01T14:33:01.489Z,2.42
2022-09-01T14:35:34.335Z,1.75
2022-09-01T14:38:07.668Z,1.40
2022-09-01T14:40:38.679Z,5.32
2022-09-01T14:43:10.497Z,2.38
2022-09-01T14:45:39.884Z,1.63
2022-09-01T14:48:09.491Z,1.67
2022-09-01T14:50:42.724Z,1.20
2022-09-01T14:53:13.826Z,2.03
2022-09-01T14:55:44.044Z,2.00
2022-09-01T14:58:13.580Z,0.60
2022-09-01T15:00:42.962Z,2.22
2022-09-01T15:03:12.334Z,1.55
2022-09-01T15:05:41.997Z,1.15
2022-09-01T15:08:17.634Z,1.42
2022-09-01T15:10:47.160Z,1.23
2022-09-01T15:13:16.320Z,1.40
2022-09-01T15:16:00.218Z,2.55
2022-09-01T15:18:29.923Z,2.67
2022-09-01T15:20:59.293Z,2.45
2022-09-01T15:23:29.801Z,1.42
2022-09-01T15:25:59.062Z,1.10
2022-09-01T15:28:28.176Z,2.63
2022-09-01T15:30:57.687Z,0.95
2022-09-01T15:33:26.929Z,1.52
2022-09-01T15:35:55.872Z,0.85
2022-09-01T15:38:30.333Z,1.60
2022-09-01T15:41:01.748Z,1.02
2022-09-01T15:43:31.922Z,0.70
2022-09-01T15:46:02.131Z,6.78
2022-09-01T15:48:31.377Z,1.10
2022-09-01T15:51:28.262Z,2.30
2022-09-01T15:54:00.280Z,2.67
2022-09-01T15:56:32.030Z,1.27
2022-09-01T15:59:03.554Z,0.68
2022-09-01T16:01:34.961Z,1.83
2022-09-01T16:04:05.712Z,1.00
2022-09-01T16:06:35.415Z,2.35
2022-09-01T16:09:04.922Z,2.28
2022-09-01T16:11:36.734Z,0.63
2022-09-01T16:14:06.578Z,1.95
2022-09-01T16:16:46.998Z,0.95
2022-09-01T16:19:39.088Z,1.98
2022-09-01T16:22:17.737Z,1.80
2022-09-01T16:24:49.373Z,1.27
2022-09-01T16:27:24.446Z,1.60
2022-09-01T16:29:57.008Z,2.05
2022-09-01T16:32:27.216Z,1.60
2022-09-01T16:34:56.283Z,1.45
2022-09-01T16:37:40.783Z,2.00
2022-09-01T16:40:31.112Z,3.58
2022-09-01T16:43:11.457Z,2.78
2022-09-01T16:45:50.824Z,4.32
2022-09-01T16:48:26.770Z,2.00
2022-09-01T16:51:03.167Z,2.28
2022-09-01T16:53:59.187Z,2.85
2022-09-01T16:56:33.992Z,1.92
2022-09-01T16:59:21.083Z,1.65
2022-09-01T17:02:01.613Z,3.45
2022-09-01T17:04:39.591Z,3.70
2022-09-01T17:07:15.501Z,8.50
2022-09-01T17:09:47.581Z,3.80
2022-09-01T17:12:27.673Z,1.75
2022-09-01T17:15:02.160Z,1.77
2022-09-01T17:17:41.366Z,1.77
2022-09-01T17:20:12.124Z,2.13
2022-09-01T17:22:52.252Z,4.05
2022-09-01T17:25:29.934Z,1.88
2022-09-01T17:28:07.047Z,4.17
2022-09-01T17:30:45.810Z,2.33
2022-09-01T17:33:24.379Z,0.80
2022-09-01T17:36:11.520Z,4.30
2022-09-01T17:38:54.227Z,7.13
2022-09-01T17:41:34.818Z,5.25
2022-09-01T17:44:19.243Z,3.47
2022-09-01T17:46:58.302Z,3.78
2022-09-01T17:49:35.802Z,2.90
2022-09-01T17:52:15.190Z,4.30
2022-09-01T17:54:52.387Z,1.67
2022-09-01T17:57:29.643Z,2.53
2022-09-01T18:00:03.933Z,3.08
2022-09-01T18:03:07.457Z,4.78
2022-09-01T18:05:41.378Z,5.38
2022-09-01T18:08:30.708Z,4.75
2022-09-01T18:11:03.685Z,1.73
2022-09-01T18:13:52.503Z,1.75
2022-09-01T18:16:26.837Z,8.50
2022-09-01T18:19:04.205Z,6.43
2022-09-01T18:21:38.243Z,5.78
2022-09-01T18:24:15.777Z,14.88
2022-09-01T18:26:48.441Z,8.93
2022-09-01T18:29:18.421Z,8.60
2022-09-01T18:32:19.125Z,15.32
2022-09-01T18:35:04.050Z,10.68
2022-09-01T18:37:50.547Z,14.73
2022-09-01T18:40:28.522Z,17.20
2022-09-01T18:43:09.425Z,5.73
2022-09-01T18:45:49.385Z,4.97
2022-09-01T18:48:37.361Z,4.65
2022-09-01T18:51:18.137Z,5.53
2022-09-01T18:53:52.812Z,13.30
2022-09-01T18:56:34.390Z,6.35
2022-09-01T18:59:36.503Z,8.30
2022-09-01T19:02:20.420Z,10.23
2022-09-01T19:04:54.885Z,8.30
2022-09-01T19:07:36.840Z,6.97
2022-09-01T19:10:18.745Z,6.80
2022-09-01T19:12:58.481Z,4.80
2022-09-01T19:18:13.957Z,6.88
2022-09-01T19:20:51.361Z,11.30
2022-09-01T19:23:36.275Z,8.32
2022-09-01T19:26:08.824Z,10.25
2022-09-01T19:28:43.363Z,8.70
2022-09-01T19:31:23.726Z,5.95
2022-09-01T19:33:57.080Z,6.68
2022-09-01T19:36:34.261Z,9.70
2022-09-01T19:39:06.835Z,11.32
2022-09-01T19:41:41.232Z,10.23
2022-09-01T19:44:22.299Z,9.50
2022-09-01T19:46:55.531Z,10.07
2022-09-01T19:49:34.387Z,10.82
2022-09-01T19:52:10.697Z,10.52
2022-09-01T19:54:52.136Z,12.90
2022-09-01T19:57:28.769Z,10.52
2022-09-01T20:00:05.467Z,11.20
2022-09-01T20:02:39.414Z,11.25
2022-09-01T20:05:18.371Z,10.35
2022-09-01T20:07:54.672Z,8.23
2022-09-01T20:10:40.196Z,12.07
2022-09-01T20:13:27.779Z,8.85
2022-09-01T20:16:06.079Z,8.02
2022-09-01T20:18:40.190Z,12.37
2022-09-01T20:21:14.804Z,6.97
2022-09-01T20:23:56.044Z,8.73
2022-09-01T20:26:33.704Z,6.38
2022-09-01T20:29:12.254Z,6.93
2022-09-01T20:31:46.267Z,8.73
2022-09-01T20:34:22.223Z,7.63
2022-09-01T20:36:54.478Z,9.00
2022-09-01T20:39:50.237Z,6.80
2022-09-01T20:42:34.702Z,8.60
2022-09-01T20:45:10.805Z,8.32
2022-09-01T20:47:39.871Z,8.25
2022-09-01T20:50:14.561Z,10.73
2022-09-01T20:52:56.708Z,7.57
2022-09-01T20:55:31.271Z,10.07
2022-09-01T20:58:08.344Z,7.85
2022-09-01T21:00:45.769Z,8.45
2022-09-01T21:03:22.299Z,7.82
2022-09-01T21:06:15.758Z,8.98
2022-09-01T21:08:50.111Z,8.82
2022-09-01T21:11:29.948Z,8.82
2022-09-01T21:14:13.927Z,6.97
2022-09-01T21:16:52.873Z,9.02
2022-09-01T21:19:29.482Z,8.07
2022-09-01T21:22:05.530Z,6.97
2022-09-01T21:24:35.447Z,9.35
2022-09-01T21:27:09.454Z,8.20
2022-09-01T21:29:53.713Z,7.20
2022-09-01T21:32:23.500Z,8.80
2022-09-01T21:34:54.144Z,7.15
2022-09-01T21:37:24.345Z,8.93
2022-09-01T21:39:54.246Z,9.68
2022-09-01T21:42:25.272Z,8.93
2022-09-01T21:44:57.039Z,9.05
2022-09-01T21:47:27.494Z,7.60
2022-09-01T21:49:56.880Z,7.32
2022-09-01T21:52:26.119Z,7.38
2022-09-01T21:54:55.302Z,9.60
2022-09-01T21:57:24.480Z,7.88
2022-09-01T21:59:55.092Z,6.90
2022-09-01T22:02:28.441Z,6.93
2022-09-01T22:04:57.911Z,8.98
2022-09-01T22:07:26.959Z,11.27
2022-09-01T22:09:57.775Z,7.53
2022-09-01T22:12:27.019Z,7.05
2022-09-01T22:14:57.336Z,7.05
2022-09-01T22:17:27.213Z,8.52
2022-09-01T22:19:56.384Z,8.35
2022-09-01T22:22:25.777Z,8.45
2022-09-01T22:24:54.723Z,9.13
2022-09-01T22:27:23.965Z,8.85
2022-09-01T22:29:53.255Z,7.90
2022-09-01T22:32:26.910Z,6.72
2022-09-01T22:34:59.190Z,7.40
2022-09-01T22:37:28.151Z,7.35
2022-09-01T22:39:57.204Z,8.43
2022-09-01T22:42:26.412Z,6.95
2022-09-01T22:44:55.550Z,9.63
2022-09-01T22:47:25.933Z,7.20
2022-09-01T22:49:56.170Z,9.00
2022-09-01T22:52:25.528Z,7.50
2022-09-01T22:54:54.520Z,7.45
2022-09-01T22:57:23.743Z,7.25
2022-09-01T22:59:52.747Z,5.82
2022-09-01T23:02:21.928Z,6.28
2022-09-01T23:04:52.859Z,6.60
2022-09-01T23:07:21.848Z,20.38
2022-09-01T23:09:50.899Z,8.25
2022-09-01T23:12:20.490Z,8.50
2022-09-01T23:14:49.759Z,7.88
2022-09-01T23:17:18.887Z,8.70
2022-09-01T23:19:48.383Z,8.25
2022-09-01T23:22:19.050Z,6.22
2022-09-01T23:24:47.955Z,5.28
2022-09-01T23:27:17.361Z,7.28
2022-09-01T23:29:46.322Z,6.82
2022-09-01T23:32:15.463Z,5.72
2022-09-01T23:34:44.819Z,8.18
2022-09-01T23:37:13.907Z,5.75
2022-09-01T23:39:44.581Z,5.88
2022-09-01T23:42:13.879Z,5.38
2022-09-01T23:44:42.851Z,6.32
2022-09-01T23:47:12.043Z,5.30
2022-09-01T23:52:11.175Z,7.28
2022-09-01T23:54:40.289Z,6.15
2022-09-01T23:57:11.731Z,6.90
2022-09-01T23:59:41.077Z,4.57
